Time;durP1;ratioP1;P1;durP2;ratioP2;P2;SDS_P1;SDS_P2;PMS_P1;PMS_P2;Temp;Humidity;BMP_temperature;BMP_pressure;BME280_temperature;BME280_humidity;BME280_pressure;Samples;Min_cycle;Max_cycle;Signal;HPM_P1;HPM_P2
2022/05/07 00:02:06;;;;;;;11.10;10.10;;;;;;;;;;5060879;28;25098;-45
2022/05/07 00:04:31;;;;;;;10.90;9.80;;;;;;;;;;5060823;28;25450;-45
2022/05/07 00:06:57;;;;;;;10.80;9.90;;;;;;;;;;5061403;28;24430;-45
2022/05/07 00:09:24;;;;;;;10.77;9.88;;;;;;;;;;5062396;28;24429;-45
2022/05/07 00:11:49;;;;;;;9.80;9.00;;;;;;;;;;5061607;28;24445;-45
2022/05/07 00:14:14;;;;;;;9.75;8.88;;;;;;;;;;5061040;28;24565;-45
2022/05/07 00:19:23;;;;;;;10.30;9.40;;;;;;;;;;5060441;28;24453;-45
2022/05/07 00:21:48;;;;;;;10.43;9.48;;;;;;;;;;5058630;28;24786;-45
2022/05/07 00:24:13;;;;;;;9.50;8.60;;;;;;;;;;5061558;28;24434;-45
2022/05/07 00:26:38;;;;;;;10.10;9.20;;;;;;;;;;5060288;28;24428;-45
2022/05/07 00:29:03;;;;;;;9.40;8.60;;;;;;;;;;5061684;28;24559;-46
2022/05/07 00:31:29;;;;;;;9.10;8.30;;;;;;;;;;5061736;28;24456;-45
2022/05/07 00:33:54;;;;;;;9.00;8.30;;;;;;;;;;5061640;28;25390;-45
2022/05/07 00:36:19;;;;;;;9.97;9.07;;;;;;;;;;5059955;28;24458;-45
2022/05/07 00:38:44;;;;;;;9.95;9.02;;;;;;;;;;5060210;28;24567;-45
2022/05/07 00:41:10;;;;;;;9.65;8.85;;;;;;;;;;5056562;28;24573;-45
2022/05/07 00:43:35;;;;;;;9.77;8.97;;;;;;;;;;5057446;28;24593;-45
2022/05/07 00:46:01;;;;;;;10.48;8.50;;;;;;;;;;5061696;28;24596;-45
2022/05/07 00:48:26;;;;;;;9.43;8.73;;;;;;;;;;5060479;28;24463;-45
2022/05/07 00:53:36;;;;;;;9.90;9.10;;;;;;;;;;5060820;28;24836;-46
2022/05/07 00:56:01;;;;;;;9.20;8.40;;;;;;;;;;5060732;28;24426;-46
2022/05/07 00:58:27;;;;;;;9.67;8.87;;;;;;;;;;5060012;28;25045;-44
2022/05/07 01:00:53;;;;;;;9.30;8.60;;;;;;;;;;5059248;28;24903;-45
2022/05/07 01:03:18;;;;;;;9.55;8.75;;;;;;;;;;5058645;28;24459;-46
2022/05/07 01:05:44;;;;;;;9.70;8.90;;;;;;;;;;5060155;28;24515;-45
2022/05/07 01:08:10;;;;;;;9.73;8.80;;;;;;;;;;5060244;28;25284;-44
2022/05/07 01:10:36;;;;;;;9.30;8.50;;;;;;;;;;5058730;28;24894;-45
2022/05/07 01:13:01;;;;;;;9.03;8.23;;;;;;;;;;5059509;28;25258;-45
2022/05/07 01:15:26;;;;;;;9.50;8.60;;;;;;;;;;5060932;28;25086;-45
2022/05/07 01:17:51;;;;;;;9.93;9.02;;;;;;;;;;5060932;28;24990;-45
2022/05/07 01:20:17;;;;;;;8.90;8.20;;;;;;;;;;5060426;28;24433;-45
2022/05/07 01:22:43;;;;;;;9.50;8.60;;;;;;;;;;5061874;28;24421;-45
2022/05/07 01:25:08;;;;;;;9.00;8.30;;;;;;;;;;5059021;28;24731;-45
2022/05/07 01:27:33;;;;;;;11.30;8.63;;;;;;;;;;5059952;28;24449;-45
2022/05/07 01:29:58;;;;;;;9.60;8.80;;;;;;;;;;5058636;28;24524;-45
2022/05/07 01:32:23;;;;;;;9.23;8.52;;;;;;;;;;5057565;28;24452;-45
2022/05/07 01:34:49;;;;;;;9.55;8.85;;;;;;;;;;5060821;28;24429;-45
2022/05/07 01:37:14;;;;;;;8.10;7.50;;;;;;;;;;5059888;28;25212;-45
2022/05/07 01:39:39;;;;;;;9.45;8.65;;;;;;;;;;5060947;28;24530;-45
2022/05/07 01:42:04;;;;;;;8.65;8.02;;;;;;;;;;5058283;28;24515;-46
2022/05/07 01:44:29;;;;;;;8.70;8.00;;;;;;;;;;5059125;28;24426;-51
2022/05/07 01:49:39;;;;;;;8.90;8.20;;;;;;;;;;5058068;28;24409;-45
2022/05/07 01:52:04;;;;;;;9.40;8.60;;;;;;;;;;5059681;28;24816;-45
2022/05/07 01:54:29;;;;;;;9.10;8.40;;;;;;;;;;5060616;28;25044;-45
2022/05/07 01:56:54;;;;;;;9.52;8.73;;;;;;;;;;5057701;28;24498;-45
2022/05/07 01:59:19;;;;;;;9.43;8.63;;;;;;;;;;5058890;28;24432;-45
2022/05/07 02:01:45;;;;;;;9.67;8.87;;;;;;;;;;5059223;28;24551;-45
2022/05/07 02:04:10;;;;;;;8.70;7.90;;;;;;;;;;5058797;28;24428;-45
2022/05/07 02:06:35;;;;;;;9.60;8.80;;;;;;;;;;5060585;28;24756;-45
2022/05/07 02:09:00;;;;;;;9.25;8.50;;;;;;;;;;5059661;28;24456;-45
2022/05/07 02:11:25;;;;;;;9.43;8.73;;;;;;;;;;5058304;28;24519;-46
2022/05/07 02:13:50;;;;;;;8.60;8.00;;;;;;;;;;5059690;28;24789;-44
2022/05/07 02:16:15;;;;;;;9.63;8.73;;;;;;;;;;5058061;28;24556;-45
2022/05/07 02:18:41;;;;;;;9.75;8.85;;;;;;;;;;5059416;28;24515;-46
2022/05/07 02:21:06;;;;;;;9.70;8.90;;;;;;;;;;5058368;28;25051;-45
2022/05/07 02:23:31;;;;;;;10.00;9.10;;;;;;;;;;5058511;28;25033;-45
2022/05/07 02:25:56;;;;;;;9.70;8.80;;;;;;;;;;5058491;28;24487;-45
2022/05/07 02:28:21;;;;;;;9.18;8.48;;;;;;;;;;5058398;28;24433;-45
2022/05/07 02:30:46;;;;;;;9.50;8.70;;;;;;;;;;5059625;28;24995;-45
2022/05/07 02:33:11;;;;;;;9.27;8.48;;;;;;;;;;5059493;28;24441;-45
2022/05/07 02:35:37;;;;;;;9.90;9.10;;;;;;;;;;5056347;28;24430;-45
2022/05/07 02:38:02;;;;;;;10.10;9.20;;;;;;;;;;5056575;28;25243;-45
2022/05/07 02:40:27;;;;;;;9.10;8.40;;;;;;;;;;5059281;28;24777;-45
2022/05/07 02:42:52;;;;;;;10.10;9.20;;;;;;;;;;5058510;28;24534;-47
2022/05/07 02:45:18;;;;;;;9.57;8.77;;;;;;;;;;5056927;28;24901;-45
2022/05/07 02:47:43;;;;;;;9.70;8.90;;;;;;;;;;5059102;28;24511;-45
2022/05/07 02:50:09;;;;;;;9.40;8.57;;;;;;;;;;5058264;28;25039;-45
2022/05/07 02:52:35;;;;;;;9.75;8.85;;;;;;;;;;5058861;28;24429;-45
2022/05/07 02:55:05;;;;;;;10.10;9.30;;;;;;;;;;5057356;28;24430;-45
2022/05/07 02:57:30;;;;;;;9.77;8.97;;;;;;;;;;5058542;28;25014;-45
2022/05/07 02:59:55;;;;;;;9.90;9.10;;;;;;;;;;5058565;28;24526;-45
2022/05/07 03:02:20;;;;;;;9.70;9.00;;;;;;;;;;5057426;28;24984;-45
2022/05/07 03:04:47;;;;;;;10.07;9.27;;;;;;;;;;5057506;28;24434;-45
2022/05/07 03:07:12;;;;;;;9.57;8.88;;;;;;;;;;5059091;28;24418;-45
2022/05/07 03:09:37;;;;;;;9.57;8.80;;;;;;;;;;5059529;28;24429;-45
2022/05/07 03:12:03;;;;;;;10.57;9.57;;;;;;;;;;5059156;28;24509;-45
2022/05/07 03:14:28;;;;;;;10.37;9.47;;;;;;;;;;5058645;28;24802;-45
2022/05/07 03:16:53;;;;;;;9.45;8.65;;;;;;;;;;5058786;28;24525;-46
2022/05/07 03:19:19;;;;;;;10.02;9.13;;;;;;;;;;5059454;28;25815;-46
2022/05/07 03:21:44;;;;;;;10.23;9.25;;;;;;;;;;5058926;28;24427;-45
2022/05/07 03:24:10;;;;;;;10.03;9.23;;;;;;;;;;5058365;28;24484;-45
2022/05/07 03:26:35;;;;;;;10.10;9.35;;;;;;;;;;5058154;28;24430;-45
2022/05/07 03:29:00;;;;;;;10.07;9.20;;;;;;;;;;5058895;28;25056;-45
2022/05/07 03:31:26;;;;;;;10.80;9.80;;;;;;;;;;5057732;28;24542;-45
2022/05/07 03:33:51;;;;;;;11.10;10.00;;;;;;;;;;5058230;28;24433;-45
2022/05/07 03:36:16;;;;;;;11.37;10.47;;;;;;;;;;5059736;28;25328;-45
2022/05/07 03:38:41;;;;;;;10.13;9.33;;;;;;;;;;5058093;28;24437;-45
2022/05/07 03:41:07;;;;;;;10.23;9.33;;;;;;;;;;5060059;28;24468;-45
2022/05/07 03:43:35;;;;;;;10.50;9.70;;;;;;;;;;5057593;28;24454;-45
2022/05/07 03:46:00;;;;;;;10.30;9.40;;;;;;;;;;5057425;28;24436;-45
2022/05/07 03:48:26;;;;;;;10.53;9.53;;;;;;;;;;5058485;28;25081;-45
2022/05/07 03:50:52;;;;;;;10.43;9.43;;;;;;;;;;5059025;28;24587;-45
2022/05/07 03:53:29;;;;;;;10.60;9.50;;;;;;;;;;5058097;28;25055;-45
2022/05/07 03:55:54;;;;;;;10.88;9.98;;;;;;;;;;5060677;28;24513;-45
2022/05/07 03:58:19;;;;;;;10.68;9.88;;;;;;;;;;5062209;28;24434;-45
2022/05/07 04:00:45;;;;;;;10.15;9.32;;;;;;;;;;5060287;28;24464;-45
2022/05/07 04:03:10;;;;;;;10.80;9.80;;;;;;;;;;5061537;28;25723;-45
2022/05/07 04:05:35;;;;;;;10.87;9.97;;;;;;;;;;5061502;28;24554;-45
2022/05/07 04:08:00;;;;;;;10.70;9.80;;;;;;;;;;5062501;28;24465;-45
2022/05/07 04:10:26;;;;;;;10.32;9.40;;;;;;;;;;5061989;28;24453;-45
2022/05/07 04:12:51;;;;;;;10.00;9.20;;;;;;;;;;5061625;28;24478;-45
2022/05/07 04:15:16;;;;;;;10.10;9.23;;;;;;;;;;5060907;28;25272;-45
2022/05/07 04:17:41;;;;;;;10.20;9.30;;;;;;;;;;5061157;28;24433;-45
2022/05/07 04:20:07;;;;;;;9.50;8.80;;;;;;;;;;5060387;28;24579;-45
2022/05/07 04:22:32;;;;;;;10.20;9.20;;;;;;;;;;5061136;28;24438;-45
2022/05/07 04:24:57;;;;;;;9.40;8.70;;;;;;;;;;5059893;28;24725;-46
2022/05/07 04:27:22;;;;;;;9.57;8.67;;;;;;;;;;5060095;28;24577;-45
2022/05/07 04:30:18;;;;;;;9.20;8.50;;;;;;;;;;5061832;28;25015;-45
2022/05/07 04:32:43;;;;;;;8.60;7.90;;;;;;;;;;5048413;28;24482;-45
2022/05/07 04:35:08;;;;;;;9.10;8.13;;;;;;;;;;5060224;28;24430;-45
2022/05/07 04:37:33;;;;;;;8.30;7.70;;;;;;;;;;5059047;28;24522;-45
2022/05/07 04:39:59;;;;;;;8.70;8.00;;;;;;;;;;5060053;28;24418;-45
2022/05/07 04:42:24;;;;;;;8.10;7.50;;;;;;;;;;5059641;28;26981;-46
2022/05/07 04:44:49;;;;;;;8.33;7.63;;;;;;;;;;5058965;28;24465;-45
2022/05/07 04:47:14;;;;;;;8.10;7.30;;;;;;;;;;5059955;28;24449;-45
2022/05/07 04:49:40;;;;;;;8.60;7.90;;;;;;;;;;5060971;28;25024;-44
2022/05/07 04:52:08;;;;;;;8.37;7.77;;;;;;;;;;5060287;28;24450;-46
2022/05/07 04:54:33;;;;;;;7.38;6.88;;;;;;;;;;5060030;28;24423;-45
2022/05/07 04:56:59;;;;;;;7.10;6.60;;;;;;;;;;5059392;28;26678;-45
2022/05/07 04:59:24;;;;;;;7.57;6.97;;;;;;;;;;5059185;28;24429;-45
2022/05/07 05:01:49;;;;;;;7.87;7.27;;;;;;;;;;5057960;28;24530;-45
2022/05/07 05:04:14;;;;;;;7.40;6.80;;;;;;;;;;5057653;28;24430;-45
2022/05/07 05:06:40;;;;;;;6.88;6.38;;;;;;;;;;5058130;28;27873;-45
2022/05/07 05:09:06;;;;;;;6.55;6.15;;;;;;;;;;5059323;28;24848;-45
2022/05/07 05:11:32;;;;;;;6.72;6.20;;;;;;;;;;5059788;28;24431;-45
2022/05/07 05:13:57;;;;;;;6.20;5.80;;;;;;;;;;5058235;28;24445;-45
2022/05/07 05:16:22;;;;;;;6.13;5.73;;;;;;;;;;5058249;28;24430;-45
2022/05/07 05:18:47;;;;;;;5.90;5.50;;;;;;;;;;5057688;28;25610;-46
2022/05/07 05:21:12;;;;;;;6.10;5.60;;;;;;;;;;5060627;28;24980;-45
2022/05/07 05:23:38;;;;;;;6.10;5.68;;;;;;;;;;5060324;28;24517;-45
2022/05/07 05:26:03;;;;;;;5.70;5.30;;;;;;;;;;5059886;28;24581;-45
2022/05/07 05:28:28;;;;;;;5.60;5.20;;;;;;;;;;5061340;28;24476;-46
2022/05/07 05:30:53;;;;;;;5.47;5.10;;;;;;;;;;5061645;28;26022;-46
2022/05/07 05:33:19;;;;;;;5.18;4.78;;;;;;;;;;5062488;28;24432;-45
2022/05/07 05:35:44;;;;;;;4.97;4.30;;;;;;;;;;5061321;28;25152;-45
2022/05/07 05:38:09;;;;;;;4.30;4.00;;;;;;;;;;5061601;28;24441;-46
2022/05/07 05:40:34;;;;;;;3.80;3.60;;;;;;;;;;5059275;28;24980;-45
2022/05/07 05:43:00;;;;;;;4.80;4.40;;;;;;;;;;5060710;28;24990;-45
2022/05/07 05:45:25;;;;;;;4.70;4.40;;;;;;;;;;5060582;28;25015;-46
2022/05/07 05:47:50;;;;;;;4.80;4.50;;;;;;;;;;5060542;28;24427;-45
2022/05/07 05:50:15;;;;;;;4.95;4.65;;;;;;;;;;5060345;28;25008;-45
2022/05/07 05:52:40;;;;;;;5.00;4.60;;;;;;;;;;5060873;28;24467;-46
2022/05/07 05:55:06;;;;;;;6.97;6.13;;;;;;;;;;5061159;28;24434;-46
2022/05/07 05:57:31;;;;;;;5.70;5.30;;;;;;;;;;5061808;28;25396;-45
2022/05/07 05:59:56;;;;;;;5.60;5.20;;;;;;;;;;5060270;28;24455;-45
2022/05/07 06:02:23;;;;;;;5.57;5.17;;;;;;;;;;5061073;28;24477;-45
2022/05/07 06:04:48;;;;;;;6.15;5.65;;;;;;;;;;5062738;28;24430;-46
2022/05/07 06:07:13;;;;;;;6.50;5.90;;;;;;;;;;5055763;28;24914;-45
2022/05/07 06:09:39;;;;;;;6.32;5.72;;;;;;;;;;5055118;28;24430;-46
2022/05/07 06:12:04;;;;;;;5.83;5.40;;;;;;;;;;5055802;28;24918;-45
2022/05/07 06:14:29;;;;;;;6.23;5.63;;;;;;;;;;5056229;28;24423;-46
2022/05/07 06:16:54;;;;;;;5.80;5.40;;;;;;;;;;5058353;28;24526;-46
2022/05/07 06:19:19;;;;;;;5.60;5.10;;;;;;;;;;5056942;28;25122;-46
2022/05/07 06:21:44;;;;;;;6.10;5.70;;;;;;;;;;5056662;28;24473;-47
2022/05/07 06:29:38;;;;;;;5.78;5.38;;;;;;;;;;5056663;28;24445;-46
2022/05/07 06:32:03;;;;;;;5.77;5.27;;;;;;;;;;5057682;28;24402;-47
2022/05/07 06:34:28;;;;;;;6.50;5.90;;;;;;;;;;5058631;28;25797;-47
2022/05/07 06:36:54;;;;;;;5.10;4.70;;;;;;;;;;5054262;28;24448;-46
2022/05/07 06:39:20;;;;;;;6.10;5.60;;;;;;;;;;5057362;28;24485;-46
2022/05/07 06:41:46;;;;;;;6.50;5.53;;;;;;;;;;5059722;28;24510;-47
2022/05/07 06:44:11;;;;;;;5.65;5.25;;;;;;;;;;5057534;28;24430;-47
2022/05/07 06:46:37;;;;;;;5.10;4.70;;;;;;;;;;5060341;28;24426;-46
2022/05/07 06:49:02;;;;;;;4.95;4.55;;;;;;;;;;5081678;28;24433;-46
2022/05/07 06:51:27;;;;;;;5.35;4.95;;;;;;;;;;5076368;28;25018;-46
2022/05/07 06:53:52;;;;;;;6.20;5.60;;;;;;;;;;5082600;28;24426;-46
2022/05/07 06:56:17;;;;;;;5.63;5.22;;;;;;;;;;5074818;28;24429;-46
2022/05/07 06:58:42;;;;;;;5.10;4.80;;;;;;;;;;5078487;28;25049;-46
2022/05/07 07:01:08;;;;;;;5.25;4.85;;;;;;;;;;5074166;28;24426;-47
2022/05/07 07:03:33;;;;;;;5.30;4.80;;;;;;;;;;5082988;28;24440;-46
2022/05/07 07:05:58;;;;;;;4.40;4.10;;;;;;;;;;5084048;28;24529;-46
2022/05/07 07:08:24;;;;;;;5.20;4.70;;;;;;;;;;5080051;28;24430;-46
2022/05/07 07:10:49;;;;;;;5.00;4.60;;;;;;;;;;5078304;28;24555;-46
2022/05/07 07:13:16;;;;;;;4.70;4.30;;;;;;;;;;5085700;28;24540;-45
2022/05/07 07:15:41;;;;;;;5.38;4.88;;;;;;;;;;5085521;28;24398;-46
2022/05/07 07:18:09;;;;;;;4.55;4.25;;;;;;;;;;5081357;28;24414;-46
2022/05/07 07:20:35;;;;;;;4.40;4.00;;;;;;;;;;5083231;28;24517;-45
2022/05/07 07:23:00;;;;;;;4.95;4.55;;;;;;;;;;5082680;28;24517;-46
2022/05/07 07:25:25;;;;;;;4.60;4.28;;;;;;;;;;5078321;28;24448;-46
2022/05/07 07:27:50;;;;;;;4.70;4.30;;;;;;;;;;5073692;28;24854;-46
2022/05/07 07:30:16;;;;;;;4.30;4.00;;;;;;;;;;5084834;28;25125;-46
2022/05/07 07:32:41;;;;;;;4.50;4.10;;;;;;;;;;5087945;28;25044;-46
2022/05/07 07:35:06;;;;;;;4.70;4.40;;;;;;;;;;5083516;28;24497;-46
2022/05/07 07:37:34;;;;;;;4.87;4.50;;;;;;;;;;5086722;28;24511;-46
2022/05/07 07:40:01;;;;;;;4.20;3.90;;;;;;;;;;5083637;28;24419;-46
2022/05/07 07:42:27;;;;;;;4.10;3.80;;;;;;;;;;5086261;28;24428;-46
2022/05/07 07:47:56;;;;;;;4.70;4.25;;;;;;;;;;5082133;28;24416;-46
2022/05/07 07:50:21;;;;;;;4.97;4.57;;;;;;;;;;5076707;28;24425;-46
2022/05/07 07:52:47;;;;;;;4.80;4.40;;;;;;;;;;5077747;28;24426;-46
2022/05/07 07:55:12;;;;;;;4.90;4.50;;;;;;;;;;5089333;28;24443;-46
2022/05/07 07:57:38;;;;;;;5.20;4.80;;;;;;;;;;5086925;28;24590;-46
2022/05/07 08:00:03;;;;;;;4.65;4.25;;;;;;;;;;5085626;28;24510;-46
2022/05/07 08:02:28;;;;;;;4.10;3.80;;;;;;;;;;5083850;28;24508;-46
2022/05/07 08:04:55;;;;;;;4.50;4.20;;;;;;;;;;5087263;28;24892;-46
2022/05/07 08:12:48;;;;;;;3.72;3.42;;;;;;;;;;5085384;28;24405;-46
2022/05/07 08:15:13;;;;;;;4.15;3.33;;;;;;;;;;5085013;28;24426;-46
2022/05/07 08:17:38;;;;;;;3.50;3.20;;;;;;;;;;5084976;28;24433;-46
2022/05/07 08:20:09;;;;;;;3.00;2.80;;;;;;;;;;5084933;28;24472;-46
2022/05/07 08:22:34;;;;;;;3.20;2.90;;;;;;;;;;5083727;28;24417;-46
2022/05/07 08:25:01;;;;;;;3.60;3.30;;;;;;;;;;5081101;28;24414;-46
2022/05/07 08:27:26;;;;;;;2.90;2.70;;;;;;;;;;5082191;28;24472;-46
2022/05/07 08:29:54;;;;;;;3.00;2.60;;;;;;;;;;5079835;28;24473;-45
2022/05/07 08:32:19;;;;;;;3.22;2.90;;;;;;;;;;5085455;28;24785;-46
2022/05/07 08:34:45;;;;;;;3.08;2.78;;;;;;;;;;5077878;28;24983;-45
2022/05/07 08:37:10;;;;;;;2.80;2.60;;;;;;;;;;5083323;28;24422;-46
2022/05/07 08:39:36;;;;;;;3.40;3.10;;;;;;;;;;5082563;28;24975;-46
2022/05/07 08:42:01;;;;;;;2.80;2.60;;;;;;;;;;5085318;28;24487;-46
2022/05/07 08:44:26;;;;;;;3.00;2.80;;;;;;;;;;5088543;28;24455;-45
2022/05/07 08:46:52;;;;;;;2.73;2.53;;;;;;;;;;5087214;28;24425;-46
2022/05/07 08:49:17;;;;;;;2.67;2.30;;;;;;;;;;5088911;28;24402;-46
2022/05/07 08:51:43;;;;;;;3.50;2.30;;;;;;;;;;5087696;28;24411;-46
2022/05/07 08:54:10;;;;;;;2.30;2.10;;;;;;;;;;5088668;28;24932;-46
2022/05/07 08:56:35;;;;;;;2.10;1.90;;;;;;;;;;5085684;28;24519;-45
2022/05/07 08:59:00;;;;;;;3.80;2.87;;;;;;;;;;5086920;28;24482;-46
2022/05/07 09:01:25;;;;;;;2.70;2.50;;;;;;;;;;5079188;28;24425;-46
2022/05/07 09:03:51;;;;;;;2.50;2.30;;;;;;;;;;5070269;28;25018;-47
2022/05/07 09:06:17;;;;;;;2.37;2.10;;;;;;;;;;5066246;28;24417;-46
2022/05/07 09:08:44;;;;;;;3.17;2.47;;;;;;;;;;5068089;28;25018;-46
2022/05/07 09:11:09;;;;;;;2.90;2.40;;;;;;;;;;5072085;28;24498;-46
2022/05/07 09:13:35;;;;;;;2.47;1.90;;;;;;;;;;5068847;28;24423;-46
2022/05/07 09:16:01;;;;;;;2.22;2.03;;;;;;;;;;5067720;28;24435;-46
2022/05/07 09:18:27;;;;;;;2.00;1.80;;;;;;;;;;5068254;28;24413;-46
2022/05/07 09:21:15;;;;;;;1.83;1.73;;;;;;;;;;5068332;28;24487;-44
2022/05/07 09:23:41;;;;;;;2.15;1.95;;;;;;;;;;5085802;28;24973;-44
2022/05/07 09:26:06;;;;;;;1.80;1.70;;;;;;;;;;5087527;28;24428;-44
2022/05/07 09:28:31;;;;;;;2.20;2.00;;;;;;;;;;5086302;28;24522;-44
2022/05/07 09:30:57;;;;;;;2.55;2.10;;;;;;;;;;5087704;28;24430;-44
2022/05/07 09:33:34;;;;;;;2.20;2.00;;;;;;;;;;5071961;28;24409;-44
2022/05/07 09:36:12;;;;;;;2.40;2.20;;;;;;;;;;5067274;28;24951;-44
2022/05/07 09:38:38;;;;;;;2.20;2.00;;;;;;;;;;5067159;28;24993;-44
2022/05/07 09:41:04;;;;;;;2.40;2.20;;;;;;;;;;5067380;28;24401;-43
2022/05/07 09:43:31;;;;;;;2.70;2.50;;;;;;;;;;5068517;28;24494;-44
2022/05/07 09:45:56;;;;;;;2.45;2.25;;;;;;;;;;5067468;28;24395;-44
2022/05/07 09:48:22;;;;;;;2.80;2.60;;;;;;;;;;5064272;28;24433;-44
2022/05/07 09:50:47;;;;;;;3.30;2.50;;;;;;;;;;5079582;28;24525;-47
2022/05/07 09:58:42;;;;;;;2.47;2.25;;;;;;;;;;5066950;28;24994;-50
2022/05/07 10:01:25;;;;;;;2.60;2.40;;;;;;;;;;5075869;28;24426;-44
2022/05/07 10:03:50;;;;;;;2.75;2.55;;;;;;;;;;5084264;28;24552;-44
2022/05/07 10:06:34;;;;;;;2.40;2.20;;;;;;;;;;5067029;28;24421;-44
2022/05/07 10:09:02;;;;;;;2.05;1.88;;;;;;;;;;5067687;28;24427;-45
2022/05/07 10:11:27;;;;;;;3.40;2.30;;;;;;;;;;5084531;28;24684;-44
2022/05/07 10:13:56;;;;;;;3.00;2.70;;;;;;;;;;5080141;28;24548;-44
2022/05/07 10:16:22;;;;;;;2.40;2.20;;;;;;;;;;5081240;28;24418;-44
2022/05/07 10:18:47;;;;;;;2.30;1.92;;;;;;;;;;5084403;28;24426;-44
2022/05/07 10:21:14;;;;;;;2.30;2.20;;;;;;;;;;5078906;28;24426;-47
2022/05/07 10:23:50;;;;;;;2.60;2.40;;;;;;;;;;5082162;28;24413;-47
2022/05/07 10:26:15;;;;;;;2.30;2.10;;;;;;;;;;5086854;28;24421;-46
2022/05/07 10:28:42;;;;;;;2.30;2.10;;;;;;;;;;5086474;28;25234;-45
2022/05/07 10:31:16;;;;;;;2.20;2.10;;;;;;;;;;5077199;28;24545;-45
2022/05/07 10:33:41;;;;;;;2.50;2.30;;;;;;;;;;5072798;28;24529;-46
2022/05/07 10:36:07;;;;;;;2.30;2.20;;;;;;;;;;5075572;28;24663;-45
2022/05/07 10:38:33;;;;;;;2.13;2.00;;;;;;;;;;5078803;28;24521;-45
2022/05/07 10:40:59;;;;;;;2.30;2.10;;;;;;;;;;5084181;28;24560;-45
2022/05/07 10:43:33;;;;;;;2.50;2.30;;;;;;;;;;5083741;28;24433;-46
2022/05/07 10:46:06;;;;;;;2.58;2.38;;;;;;;;;;5086047;28;25048;-46
2022/05/07 10:49:01;;;;;;;2.10;2.00;;;;;;;;;;5086285;28;24460;-46
2022/05/07 10:51:34;;;;;;;3.20;2.75;;;;;;;;;;5063876;28;24884;-46
2022/05/07 10:54:00;;;;;;;2.40;2.00;;;;;;;;;;5081136;28;24471;-45
2022/05/07 10:56:26;;;;;;;2.40;2.20;;;;;;;;;;5083525;28;24515;-45
2022/05/07 10:58:52;;;;;;;3.30;2.50;;;;;;;;;;5081933;28;24955;-45
2022/05/07 11:01:18;;;;;;;2.30;2.20;;;;;;;;;;5080894;28;24426;-44
2022/05/07 11:03:44;;;;;;;3.00;2.40;;;;;;;;;;5073040;28;24606;-45
2022/05/07 11:06:09;;;;;;;2.50;2.30;;;;;;;;;;5081376;28;24425;-45
2022/05/07 11:08:45;;;;;;;2.60;2.40;;;;;;;;;;5083607;28;24431;-47
2022/05/07 11:11:10;;;;;;;3.25;2.50;;;;;;;;;;5080969;28;24812;-45
2022/05/07 11:13:50;;;;;;;2.30;2.10;;;;;;;;;;5083100;28;24418;-47
2022/05/07 11:16:16;;;;;;;2.60;2.40;;;;;;;;;;5085102;28;24466;-45
2022/05/07 11:18:45;;;;;;;3.03;2.78;;;;;;;;;;5083627;28;24441;-45
2022/05/07 11:21:10;;;;;;;3.20;2.90;;;;;;;;;;5083715;28;24422;-45
2022/05/07 11:23:36;;;;;;;2.90;2.70;;;;;;;;;;5084534;28;24421;-46
2022/05/07 11:26:12;;;;;;;2.30;2.20;;;;;;;;;;5084895;28;24434;-46
2022/05/07 11:28:37;;;;;;;2.67;2.40;;;;;;;;;;5084533;28;24789;-45
2022/05/07 11:31:02;;;;;;;2.40;2.20;;;;;;;;;;5077894;28;24439;-45
2022/05/07 11:33:28;;;;;;;2.50;2.30;;;;;;;;;;5071376;28;24429;-45
2022/05/07 11:36:01;;;;;;;3.78;2.45;;;;;;;;;;5066092;28;24402;-46
2022/05/07 11:38:26;;;;;;;2.63;2.42;;;;;;;;;;5068979;28;24434;-46
2022/05/07 11:40:52;;;;;;;2.88;2.40;;;;;;;;;;5085940;28;24409;-46
2022/05/07 11:46:07;;;;;;;2.30;2.10;;;;;;;;;;5083563;28;24426;-46
2022/05/07 11:48:32;;;;;;;2.90;2.50;;;;;;;;;;5081017;28;25366;-47
2022/05/07 11:50:59;;;;;;;2.43;2.23;;;;;;;;;;5077147;28;24421;-45
2022/05/07 11:53:31;;;;;;;2.00;1.90;;;;;;;;;;5085839;28;24389;-45
2022/05/07 11:56:06;;;;;;;2.20;2.00;;;;;;;;;;5084397;28;24423;-45
2022/05/07 11:58:39;;;;;;;2.65;2.22;;;;;;;;;;5085912;28;24426;-46
2022/05/07 12:01:06;;;;;;;3.45;2.22;;;;;;;;;;5080932;28;24421;-46
2022/05/07 12:03:31;;;;;;;3.00;2.70;;;;;;;;;;5083925;28;24495;-46
2022/05/07 12:05:57;;;;;;;2.40;2.20;;;;;;;;;;5079557;28;24433;-45
2022/05/07 12:08:24;;;;;;;2.63;2.42;;;;;;;;;;5078349;28;25011;-45
2022/05/07 12:10:50;;;;;;;2.50;2.28;;;;;;;;;;5074962;28;24526;-46
2022/05/07 12:13:16;;;;;;;3.42;2.60;;;;;;;;;;5075830;28;24561;-46
2022/05/07 12:18:25;;;;;;;2.50;2.30;;;;;;;;;;5080661;28;24542;-45
2022/05/07 12:20:50;;;;;;;2.30;2.20;;;;;;;;;;5079034;28;25226;-46
2022/05/07 12:29:49;;;;;;;2.10;2.00;;;;;;;;;;5080558;28;24417;-46
2022/05/07 12:31:47;;;;;;;3.70;2.60;;;;;;;;;;5079248;28;24754;-45
2022/05/07 12:34:13;;;;;;;2.73;2.30;;;;;;;;;;5088549;28;24426;-45
2022/05/07 12:36:38;;;;;;;2.03;1.93;;;;;;;;;;5083215;28;24426;-45
2022/05/07 12:39:03;;;;;;;2.03;1.93;;;;;;;;;;5087511;28;24851;-46
2022/05/07 12:41:29;;;;;;;2.20;2.00;;;;;;;;;;5087396;28;24479;-45
2022/05/07 12:43:54;;;;;;;2.50;2.30;;;;;;;;;;5087512;28;24614;-46
2022/05/07 12:46:20;;;;;;;2.03;1.93;;;;;;;;;;5085815;28;25014;-45
2022/05/07 12:48:45;;;;;;;2.17;2.07;;;;;;;;;;5082938;28;25210;-46
2022/05/07 12:51:10;;;;;;;2.20;2.10;;;;;;;;;;5084061;28;24549;-46
2022/05/07 12:53:36;;;;;;;1.90;1.80;;;;;;;;;;5086690;28;24425;-45
2022/05/07 12:56:02;;;;;;;2.30;2.20;;;;;;;;;;5085932;28;24426;-46
2022/05/07 12:58:27;;;;;;;2.00;1.90;;;;;;;;;;5085055;28;24437;-46
2022/05/07 13:00:52;;;;;;;3.30;3.00;;;;;;;;;;5085882;28;24422;-46
2022/05/07 13:03:18;;;;;;;2.40;2.20;;;;;;;;;;5084079;28;24859;-45
2022/05/07 13:05:43;;;;;;;2.47;2.28;;;;;;;;;;5079377;28;24861;-46
2022/05/07 13:08:08;;;;;;;2.77;2.57;;;;;;;;;;5079450;28;24426;-46
2022/05/07 13:10:33;;;;;;;2.53;2.40;;;;;;;;;;5080759;28;24430;-46
2022/05/07 13:12:59;;;;;;;2.10;2.00;;;;;;;;;;5082906;28;24417;-46
2022/05/07 13:15:26;;;;;;;1.90;1.80;;;;;;;;;;5083600;28;24434;-46
2022/05/07 13:17:51;;;;;;;2.10;1.90;;;;;;;;;;5083551;28;24563;-46
2022/05/07 13:20:16;;;;;;;2.25;2.05;;;;;;;;;;5076558;28;24905;-46
2022/05/07 13:22:41;;;;;;;2.00;1.90;;;;;;;;;;5086097;28;24410;-46
2022/05/07 13:25:07;;;;;;;2.33;2.10;;;;;;;;;;5082902;28;24426;-44
2022/05/07 13:27:33;;;;;;;2.80;2.10;;;;;;;;;;5074883;28;24422;-46
2022/05/07 13:29:59;;;;;;;2.50;2.10;;;;;;;;;;5081046;28;24430;-45
2022/05/07 13:32:24;;;;;;;2.90;2.30;;;;;;;;;;5082904;28;24437;-45
2022/05/07 13:34:49;;;;;;;2.63;2.35;;;;;;;;;;5079717;28;24453;-46
2022/05/07 13:37:14;;;;;;;2.22;2.08;;;;;;;;;;5084078;28;24842;-45
2022/05/07 13:39:40;;;;;;;2.07;1.97;;;;;;;;;;5079449;28;24491;-45
2022/05/07 13:42:05;;;;;;;2.00;1.90;;;;;;;;;;5086238;28;24425;-46
2022/05/07 13:44:30;;;;;;;2.70;2.40;;;;;;;;;;5081191;28;24505;-45
2022/05/07 13:46:55;;;;;;;3.20;2.10;;;;;;;;;;5082999;28;24579;-45
2022/05/07 13:49:20;;;;;;;1.83;1.63;;;;;;;;;;5079523;28;24924;-45
2022/05/07 13:51:46;;;;;;;2.95;2.40;;;;;;;;;;5075114;28;25224;-45
2022/05/07 13:54:12;;;;;;;2.30;2.10;;;;;;;;;;5075615;28;24541;-45
2022/05/07 13:56:37;;;;;;;2.60;2.40;;;;;;;;;;5080895;28;24418;-46
2022/05/07 13:59:02;;;;;;;2.20;2.10;;;;;;;;;;5077888;28;24418;-46
2022/05/07 14:01:27;;;;;;;2.50;2.30;;;;;;;;;;5077654;28;24522;-46
2022/05/07 14:03:52;;;;;;;1.93;1.83;;;;;;;;;;5084400;28;24440;-46
2022/05/07 14:06:19;;;;;;;1.90;1.80;;;;;;;;;;5082091;28;24458;-46
2022/05/07 14:08:45;;;;;;;2.45;2.30;;;;;;;;;;5075604;28;24442;-46
2022/05/07 14:11:10;;;;;;;2.50;2.30;;;;;;;;;;5080852;28;24429;-46
2022/05/07 14:13:35;;;;;;;2.43;2.23;;;;;;;;;;5067876;28;24430;-46
2022/05/07 14:16:00;;;;;;;3.15;2.10;;;;;;;;;;5079917;28;24414;-46
2022/05/07 14:18:25;;;;;;;2.50;2.10;;;;;;;;;;5079071;28;24474;-46
2022/05/07 14:20:50;;;;;;;1.93;1.83;;;;;;;;;;5077264;28;24430;-47
2022/05/07 14:23:16;;;;;;;2.00;1.80;;;;;;;;;;5071889;28;24904;-45
2022/05/07 14:25:41;;;;;;;2.10;2.00;;;;;;;;;;5081340;28;24429;-45
2022/05/07 14:28:06;;;;;;;2.30;2.10;;;;;;;;;;5079101;28;24430;-45
2022/05/07 14:30:32;;;;;;;2.05;1.90;;;;;;;;;;5078872;28;24449;-45
2022/05/07 14:32:57;;;;;;;2.53;1.90;;;;;;;;;;5079463;28;24467;-45
2022/05/07 14:35:22;;;;;;;2.15;1.95;;;;;;;;;;5079111;28;24425;-46
2022/05/07 14:37:47;;;;;;;3.03;2.33;;;;;;;;;;5078079;28;24457;-45
2022/05/07 14:40:31;;;;;;;2.70;2.50;;;;;;;;;;5074851;28;24414;-46
2022/05/07 14:43:01;;;;;;;2.50;2.30;;;;;;;;;;5079259;28;24513;-45
2022/05/07 14:45:26;;;;;;;2.75;2.47;;;;;;;;;;5081959;28;24971;-46
2022/05/07 14:47:51;;;;;;;2.50;2.30;;;;;;;;;;5077680;28;24414;-45
2022/05/07 14:50:17;;;;;;;3.57;2.50;;;;;;;;;;5082371;28;24421;-45
2022/05/07 14:52:42;;;;;;;2.47;2.27;;;;;;;;;;5079875;28;24835;-45
2022/05/07 14:55:07;;;;;;;2.55;2.35;;;;;;;;;;5082699;28;24420;-45
2022/05/07 14:57:32;;;;;;;1.97;1.87;;;;;;;;;;5080357;28;24445;-46
2022/05/07 14:59:58;;;;;;;2.42;2.22;;;;;;;;;;5083099;28;24503;-46
2022/05/07 15:02:23;;;;;;;2.53;2.30;;;;;;;;;;5078787;28;25655;-45
2022/05/07 15:04:48;;;;;;;2.30;2.00;;;;;;;;;;5074438;28;24982;-45
2022/05/07 15:07:13;;;;;;;2.50;2.30;;;;;;;;;;5083066;28;25008;-45
2022/05/07 15:12:23;;;;;;;2.80;2.60;;;;;;;;;;5079868;28;24483;-45
2022/05/07 15:14:48;;;;;;;2.13;2.03;;;;;;;;;;5078508;28;24422;-45
2022/05/07 15:17:13;;;;;;;2.80;2.60;;;;;;;;;;5082591;28;24414;-45